Vassan, Canada
Current Conditions -  °F | °C
As of 3:00 PM on Sunday 21 Dec 2014 (Local Time) from CYVO Reporting Station
Broken Clouds Broken Clouds  
Wind Chill: 11°   Ceiling: 7500
Heat Index: 18°   Visibility: 15mi
Dew Point: 16°   Wind: 5mph
Humidity: 93%   Direction: 150°SSE
Pressure: 30.21"   Gusts: NA
Location:  48.27°N, 77.98°W
Report Text: CYVO 212000Z 15004KT 15SM BKN075 BKN280 M08/M09 A3021 RMK AC5CS2 SLP264
Loading
Personal Weather Stations






























Interactive Weather Map New forecast layout! Learn more

10-Day Weather Forecast

Advertisements
Track Severe Weather on mobile